Time,TemperatureF,DewpointF,PressureIn,WindDirection,WindDirectionDegrees,WindSpeedMPH,WindSpeedGustMPH,Humidity,HourlyPrecipIn,Conditions,Clouds,dailyrainin,SoftwareType,DateUTC
2013-01-24 00:09:00,18.3,-0.5,30.11,ESE,102,0.0,0.0,43,0.00,CLR,,0.00,WeatherDisplay:10.37,2013-01-24 05:09:00,
2013-01-24 00:19:00,18.3,-0.5,30.11,East,100,0.0,0.0,43,0.00,CLR,,0.00,WeatherDisplay:10.37,2013-01-24 05:19:00,
2013-01-24 00:29:00,18.3,0.0,30.11,East,99,2.0,5.0,44,0.00,CLR,,0.00,WeatherDisplay:10.37,2013-01-24 05:29:00,
2013-01-24 00:39:00,18.1,0.3,30.11,East,84,3.0,6.0,45,0.00,CLR,,0.00,WeatherDisplay:10.37,2013-01-24 05:39:00,
2013-01-24 00:49:00,18.0,0.6,30.11,ESE,120,0.0,6.0,46,0.00,CLR,,0.00,WeatherDisplay:10.37,2013-01-24 05:49:00,
2013-01-24 00:59:00,18.0,1.1,30.08,ESE,111,0.0,5.0,47,0.00,CLR,,0.00,WeatherDisplay:10.37,2013-01-24 05:59:00,
2013-01-24 01:09:00,18.0,1.5,30.11,ESE,120,0.0,0.0,48,0.00,CLR,,0.00,WeatherDisplay:10.37,2013-01-24 06:09:00,
2013-01-24 01:19:00,17.8,1.8,30.11,ESE,113,5.0,6.0,49,0.00,CLR,,0.00,WeatherDisplay:10.37,2013-01-24 06:19:00,
2013-01-24 01:29:00,17.8,2.7,30.08,ESE,117,1.0,5.0,51,0.00,CLR,,0.00,WeatherDisplay:10.37,2013-01-24 06:29:00,
2013-01-24 01:39:00,17.8,3.1,30.08,East,101,2.0,6.0,52,0.00,CLR,,0.00,WeatherDisplay:10.37,2013-01-24 06:39:00,
2013-01-24 01:49:00,17.8,3.5,30.08,ESE,106,5.0,6.0,53,0.00,CLR,,0.00,WeatherDisplay:10.37,2013-01-24 06:49:00,
2013-01-24 01:59:00,17.6,3.8,30.08,ESE,104,5.0,8.0,54,0.00,CLR,,0.00,WeatherDisplay:10.37,2013-01-24 06:59:00,
2013-01-24 02:09:00,17.4,4.0,30.08,ESE,110,5.0,6.0,55,0.00,CLR,,0.00,WeatherDisplay:10.37,2013-01-24 07:09:00,
2013-01-24 02:19:00,17.2,4.2,30.08,East,92,5.0,6.0,56,0.00,CLR,,0.00,WeatherDisplay:10.37,2013-01-24 07:19:00,
2013-01-24 02:29:00,17.2,4.6,30.08,ESE,106,5.0,7.0,57,0.00,CLR,,0.00,WeatherDisplay:10.37,2013-01-24 07:29:00,
2013-01-24 02:39:00,17.1,4.4,30.08,ESE,109,1.0,6.0,57,0.00,CLR,,0.00,WeatherDisplay:10.37,2013-01-24 07:39:00,
2013-01-24 02:49:00,17.1,4.4,30.08,East,88,1.0,6.0,57,0.00,CLR,,0.00,WeatherDisplay:10.37,2013-01-24 07:49:00,
2013-01-24 02:59:00,17.1,4.4,30.08,East,93,0.0,6.0,57,0.00,CLR,,0.00,WeatherDisplay:10.37,2013-01-24 07:59:00,
2013-01-24 03:09:00,17.1,4.4,30.08,East,100,0.0,5.0,57,0.00,CLR,,0.00,WeatherDisplay:10.37,2013-01-24 08:09:00,
2013-01-24 03:19:00,16.9,4.3,30.08,East,81,1.0,5.0,57,0.00,CLR,,0.00,WeatherDisplay:10.37,2013-01-24 08:19:00,
2013-01-24 03:29:00,16.9,4.3,30.08,East,101,0.0,3.0,57,0.00,CLR,,0.00,WeatherDisplay:10.37,2013-01-24 08:29:00,
2013-01-24 03:39:00,16.7,4.1,30.08,ENE,61,0.0,0.0,57,0.00,CLR,,0.00,WeatherDisplay:10.37,2013-01-24 08:39:00,
2013-01-24 03:49:00,16.7,4.1,30.08,NNE,20,3.0,5.0,57,0.00,CLR,,0.00,WeatherDisplay:10.37,2013-01-24 08:49:00,
2013-01-24 03:59:00,16.7,3.7,30.11,North,353,0.0,2.0,56,0.00,CLR,,0.00,WeatherDisplay:10.37,2013-01-24 08:59:00,
2013-01-24 04:09:00,16.7,3.7,30.11,NNE,28,0.0,3.0,56,0.00,CLR,,0.00,WeatherDisplay:10.37,2013-01-24 09:09:00,
2013-01-24 04:19:00,16.5,3.5,30.11,NE,42,0.0,0.0,56,0.00,CLR,,0.00,WeatherDisplay:10.37,2013-01-24 09:19:00,
2013-01-24 04:29:00,16.5,3.5,30.11,NE,34,0.0,0.0,56,0.00,CLR,,0.00,WeatherDisplay:10.37,2013-01-24 09:29:00,
2013-01-24 04:39:00,16.5,3.5,30.11,NNW,333,2.0,4.0,56,0.00,CLR,,0.00,WeatherDisplay:10.37,2013-01-24 09:39:00,
2013-01-24 04:49:00,16.5,3.5,30.11,NNW,345,0.0,3.0,56,0.00,CLR,,0.00,WeatherDisplay:10.37,2013-01-24 09:49:00,
2013-01-24 04:59:00,16.5,3.5,30.11,NNW,337,1.0,4.0,56,0.00,CLR,,0.00,WeatherDisplay:10.37,2013-01-24 09:59:00,
2013-01-24 05:09:00,16.5,3.5,30.14,NNW,344,0.0,4.0,56,0.00,CLR,,0.00,WeatherDisplay:10.37,2013-01-24 10:09:00,
2013-01-24 05:19:00,16.3,3.7,30.14,NNW,329,0.0,0.0,57,0.00,CLR,,0.00,WeatherDisplay:10.37,2013-01-24 10:19:00,
2013-01-24 05:29:00,16.3,3.7,30.14,North,357,0.0,3.0,57,0.00,CLR,,0.00,WeatherDisplay:10.37,2013-01-24 10:29:00,
2013-01-24 05:39:00,16.5,3.9,30.14,NNW,334,2.0,4.0,57,0.00,CLR,,0.00,WeatherDisplay:10.37,2013-01-24 10:39:00,
2013-01-24 05:49:00,16.3,4.1,30.14,NNW,331,3.0,6.0,58,0.00,CLR,,0.00,WeatherDisplay:10.37,2013-01-24 10:49:00,
2013-01-24 05:59:00,16.2,4.3,30.14,NNW,344,3.0,6.0,59,0.00,CLR,,0.00,WeatherDisplay:10.37,2013-01-24 10:59:00,
2013-01-24 06:09:00,16.2,4.7,30.14,NNW,343,3.0,6.0,60,0.00,CLR,,0.00,WeatherDisplay:10.37,2013-01-24 11:09:00,
2013-01-24 06:19:00,16.2,4.7,30.14,NNW,339,2.0,6.0,60,0.00,CLR,,0.00,WeatherDisplay:10.37,2013-01-24 11:19:00,
2013-01-24 06:29:00,16.2,4.7,30.17,NNW,334,2.0,7.0,60,0.00,CLR,,0.00,WeatherDisplay:10.37,2013-01-24 11:29:00,
2013-01-24 06:39:00,16.0,4.9,30.17,NW,322,3.0,5.0,61,0.00,CLR,,0.00,WeatherDisplay:10.37,2013-01-24 11:39:00,
2013-01-24 06:49:00,15.8,4.7,30.17,NW,315,3.0,5.0,61,0.00,CLR,,0.00,WeatherDisplay:10.37,2013-01-24 11:49:00,
2013-01-24 06:59:00,15.4,4.4,30.20,NW,318,3.0,6.0,61,0.00,CLR,,0.00,WeatherDisplay:10.37,2013-01-24 11:59:00,
2013-01-24 07:09:00,15.3,4.2,30.20,NW,322,0.0,6.0,61,0.00,CLR,,0.00,WeatherDisplay:10.37,2013-01-24 12:09:00,
2013-01-24 07:19:00,14.9,4.2,30.20,NW,317,1.0,6.0,62,0.00,CLR,,0.00,WeatherDisplay:10.37,2013-01-24 12:19:00,
2013-01-24 07:29:00,14.7,4.0,30.20,NW,319,2.0,6.0,62,0.00,CLR,,0.00,WeatherDisplay:10.37,2013-01-24 12:29:00,
2013-01-24 07:39:00,14.4,3.4,30.23,NW,323,2.0,6.0,61,0.00,CLR,,0.00,WeatherDisplay:10.37,2013-01-24 12:39:00,
2013-01-24 07:49:00,13.8,3.2,30.23,NNW,332,1.0,6.0,62,0.00,CLR,,0.00,WeatherDisplay:10.37,2013-01-24 12:49:00,
2013-01-24 07:59:00,14.0,3.4,30.23,NW,316,3.0,6.0,62,0.00,CLR,,0.00,WeatherDisplay:10.37,2013-01-24 12:59:00,
2013-01-24 08:09:00,14.5,3.9,30.26,NW,314,3.0,6.0,62,0.00,CLR,,0.00,WeatherDisplay:10.37,2013-01-24 13:09:00,
2013-01-24 08:19:00,15.0,4.6,30.26,WNW,299,3.0,6.0,63,0.00,CLR,,0.00,WeatherDisplay:10.37,2013-01-24 13:19:00,
2013-01-24 08:29:00,15.0,4.3,30.26,NW,322,5.0,6.0,62,0.00,CLR,,0.00,WeatherDisplay:10.37,2013-01-24 13:29:00,
2013-01-24 08:39:00,15.1,4.4,30.26,NW,316,6.0,8.0,62,0.00,CLR,,0.00,WeatherDisplay:10.37,2013-01-24 13:39:00,
2013-01-24 08:49:00,15.3,4.6,30.26,NW,309,5.0,8.0,62,0.00,CLR,,0.00,WeatherDisplay:10.37,2013-01-24 13:49:00,
2013-01-24 08:59:00,15.7,4.9,30.29,NW,323,2.0,6.0,62,0.00,CLR,,0.00,WeatherDisplay:10.37,2013-01-24 13:59:00,
2013-01-24 09:09:00,16.3,5.2,30.29,WNW,300,5.0,6.0,61,0.00,CLR,,0.00,WeatherDisplay:10.37,2013-01-24 14:09:00,
2013-01-24 09:19:00,16.2,4.4,30.29,NW,308,5.0,8.0,59,0.00,CLR,,0.00,WeatherDisplay:10.37,2013-01-24 14:19:00,
2013-01-24 09:29:00,16.7,4.5,30.29,NW,310,6.0,8.0,58,0.00,CLR,,0.00,WeatherDisplay:10.37,2013-01-24 14:29:00,
2013-01-24 09:39:00,17.1,4.4,30.29,NW,314,3.0,7.0,57,0.00,CLR,,0.00,WeatherDisplay:10.37,2013-01-24 14:39:00,
2013-01-24 09:49:00,17.5,4.4,30.29,WNW,302,6.0,8.0,56,0.00,CLR,,0.00,WeatherDisplay:10.37,2013-01-24 14:49:00,
2013-01-24 09:59:00,18.0,3.7,30.32,NW,311,5.0,8.0,53,0.00,CLR,,0.00,WeatherDisplay:10.37,2013-01-24 14:59:00,
2013-01-24 10:09:00,18.1,3.4,30.32,NNW,328,1.0,6.0,52,0.00,CLR,,0.00,WeatherDisplay:10.37,2013-01-24 15:09:00,
2013-01-24 10:19:00,18.0,2.0,30.32,NW,320,5.0,6.0,49,0.00,CLR,,0.00,WeatherDisplay:10.37,2013-01-24 15:19:00,
2013-01-24 10:29:00,18.2,2.6,30.32,WNW,290,0.0,6.0,50,0.00,CLR,,0.00,WeatherDisplay:10.37,2013-01-24 15:29:00,
2013-01-24 10:39:00,19.4,1.5,30.32,NW,326,7.0,13.0,45,0.00,CLR,,0.00,WeatherDisplay:10.37,2013-01-24 15:39:00,
2013-01-24 10:49:00,19.8,0.9,30.32,NNW,331,5.0,9.0,43,0.00,CLR,,0.00,WeatherDisplay:10.37,2013-01-24 15:49:00,
2013-01-24 10:59:00,20.3,-0.2,30.34,NW,313,7.0,9.0,40,0.00,CLR,,0.00,WeatherDisplay:10.37,2013-01-24 15:59:00,
2013-01-24 11:09:00,20.5,-1.1,30.34,WNW,292,7.0,12.0,38,0.00,CLR,,0.00,WeatherDisplay:10.37,2013-01-24 16:09:00,
2013-01-24 11:19:00,21.4,-0.3,30.34,NW,309,5.0,8.0,38,0.00,CLR,,0.00,WeatherDisplay:10.37,2013-01-24 16:19:00,
2013-01-24 11:29:00,21.9,-1.6,30.32,NNW,329,7.0,10.0,35,0.00,CLR,,0.00,WeatherDisplay:10.37,2013-01-24 16:29:00,
2013-01-24 11:39:00,22.0,-2.1,30.34,NW,324,7.0,12.0,34,0.00,CLR,,0.00,WeatherDisplay:10.37,2013-01-24 16:39:00,
2013-01-24 11:49:00,22.1,-2.7,30.34,NW,309,9.0,13.0,33,0.00,CLR,,0.00,WeatherDisplay:10.37,2013-01-24 16:49:00,
2013-01-24 11:59:00,22.5,-3.0,30.34,NW,321,12.0,15.0,32,0.00,CLR,,0.00,WeatherDisplay:10.37,2013-01-24 16:59:00,
2013-01-24 12:09:00,22.8,-2.7,30.34,NW,320,10.0,20.0,32,0.00,CLR,,0.00,WeatherDisplay:10.37,2013-01-24 17:09:00,
2013-01-24 12:19:00,23.3,-2.3,30.34,NW,322,10.0,20.0,32,0.00,CLR,,0.00,WeatherDisplay:10.37,2013-01-24 17:19:00,
2013-01-24 12:29:00,23.0,-3.2,30.34,NW,325,10.0,19.0,31,0.00,CLR,,0.00,WeatherDisplay:10.37,2013-01-24 17:29:00,
2013-01-24 12:39:00,23.2,-5.9,30.34,NW,326,10.0,20.0,27,0.00,CLR,,0.00,WeatherDisplay:10.37,2013-01-24 17:39:00,
2013-01-24 12:49:00,23.2,-7.5,30.34,NW,317,12.0,23.0,25,0.00,CLR,,0.00,WeatherDisplay:10.37,2013-01-24 17:49:00,
2013-01-24 12:59:00,23.4,-8.2,30.37,NNW,330,10.0,18.0,24,0.00,CLR,,0.00,WeatherDisplay:10.37,2013-01-24 17:59:00,
2013-01-24 13:09:00,23.6,-8.9,30.37,NW,321,8.0,18.0,23,0.00,CLR,,0.00,WeatherDisplay:10.37,2013-01-24 18:09:00,
2013-01-24 13:19:00,23.9,-9.5,30.37,NW,318,8.0,20.0,22,0.00,CLR,,0.00,WeatherDisplay:10.37,2013-01-24 18:19:00,
2013-01-24 13:29:00,23.7,-9.7,30.37,NNW,330,10.0,15.0,22,0.00,CLR,,0.00,WeatherDisplay:10.37,2013-01-24 18:29:00,
2013-01-24 13:39:00,24.1,-9.4,30.37,NNW,327,12.0,15.0,22,0.00,CLR,,0.00,WeatherDisplay:10.37,2013-01-24 18:39:00,
2013-01-24 13:49:00,24.4,-9.0,30.37,NNW,333,10.0,17.0,22,0.00,CLR,,0.00,WeatherDisplay:10.37,2013-01-24 18:49:00,
2013-01-24 13:59:00,24.3,-9.2,30.34,NW,320,10.0,26.0,22,0.00,CLR,,0.00,WeatherDisplay:10.37,2013-01-24 18:59:00,
2013-01-24 14:09:00,24.6,-9.8,30.34,NW,307,9.0,15.0,21,0.00,CLR,,0.00,WeatherDisplay:10.37,2013-01-24 19:09:00,
2013-01-24 14:19:00,24.6,-11.9,30.34,NW,316,8.0,15.0,19,0.00,CLR,,0.00,WeatherDisplay:10.37,2013-01-24 19:19:00,
2013-01-24 14:29:00,24.4,-12.1,30.37,NW,316,12.0,15.0,19,0.00,CLR,,0.00,WeatherDisplay:10.37,2013-01-24 19:29:00,
2013-01-24 14:39:00,24.0,-12.4,30.37,NW,312,9.0,15.0,19,0.00,CLR,,0.00,WeatherDisplay:10.37,2013-01-24 19:39:00,
2013-01-24 14:49:00,24.6,-11.9,30.37,NW,315,9.0,17.0,19,0.00,CLR,,0.00,WeatherDisplay:10.37,2013-01-24 19:49:00,
2013-01-24 14:59:00,25.0,-11.6,30.37,NW,307,9.0,13.0,19,0.00,CLR,,0.00,WeatherDisplay:10.37,2013-01-24 19:59:00,
2013-01-24 15:09:00,25.2,-11.4,30.37,NW,325,10.0,15.0,19,0.00,CLR,,0.00,WeatherDisplay:10.37,2013-01-24 20:09:00,
2013-01-24 15:19:00,24.6,-11.9,30.37,NW,324,9.0,15.0,19,0.00,CLR,,0.00,WeatherDisplay:10.37,2013-01-24 20:19:00,
2013-01-24 15:29:00,24.6,-11.9,30.40,NNW,328,6.0,16.0,19,0.00,CLR,,0.00,WeatherDisplay:10.37,2013-01-24 20:29:00,
2013-01-24 15:39:00,25.0,-11.6,30.40,NW,319,8.0,13.0,19,0.00,CLR,,0.00,WeatherDisplay:10.37,2013-01-24 20:39:00,
2013-01-24 15:49:00,24.6,-11.9,30.40,NW,313,7.0,15.0,19,0.00,CLR,,0.00,WeatherDisplay:10.37,2013-01-24 20:49:00,
2013-01-24 15:59:00,24.6,-11.9,30.40,NW,321,8.0,14.0,19,0.00,CLR,,0.00,WeatherDisplay:10.37,2013-01-24 20:59:00,
2013-01-24 16:09:00,25.0,-11.6,30.43,NW,307,10.0,15.0,19,0.00,CLR,,0.00,WeatherDisplay:10.37,2013-01-24 21:09:00,
2013-01-24 16:19:00,24.7,-11.8,30.43,NW,313,9.0,13.0,19,0.00,CLR,,0.00,WeatherDisplay:10.37,2013-01-24 21:19:00,
2013-01-24 16:29:00,23.7,-12.6,30.43,WNW,302,8.0,22.0,19,0.00,CLR,,0.00,WeatherDisplay:10.37,2013-01-24 21:29:00,
2013-01-24 16:39:00,23.5,-12.8,30.43,NW,311,8.0,13.0,19,0.00,CLR,,0.00,WeatherDisplay:10.37,2013-01-24 21:39:00,
2013-01-24 16:49:00,23.7,-12.6,30.43,WNW,298,8.0,15.0,19,0.00,CLR,,0.00,WeatherDisplay:10.37,2013-01-24 21:49:00,
2013-01-24 16:59:00,23.2,-12.0,30.43,NW,317,6.0,12.0,20,0.00,CLR,,0.00,WeatherDisplay:10.37,2013-01-24 21:59:00,
2013-01-24 17:09:00,22.8,-12.3,30.43,NW,314,7.0,11.0,20,0.00,CLR,,0.00,WeatherDisplay:10.37,2013-01-24 22:09:00,
2013-01-24 17:19:00,22.3,-12.8,30.43,NW,308,7.0,11.0,20,0.00,CLR,,0.00,WeatherDisplay:10.37,2013-01-24 22:19:00,
2013-01-24 17:29:00,22.1,-13.0,30.43,NW,305,7.0,12.0,20,0.00,CLR,,0.00,WeatherDisplay:10.37,2013-01-24 22:29:00,
2013-01-24 17:39:00,21.7,-13.3,30.43,NW,315,5.0,9.0,20,0.00,CLR,,0.00,WeatherDisplay:10.37,2013-01-24 22:39:00,
2013-01-24 17:49:00,21.4,-13.6,30.43,WNW,286,3.0,8.0,20,0.00,CLR,,0.00,WeatherDisplay:10.37,2013-01-24 22:49:00,
2013-01-24 17:59:00,21.2,-13.7,30.46,WNW,296,6.0,8.0,20,0.00,CLR,,0.00,WeatherDisplay:10.37,2013-01-24 22:59:00,
2013-01-24 18:09:00,21.0,-13.9,30.46,NW,311,3.0,8.0,20,0.00,CLR,,0.00,WeatherDisplay:10.37,2013-01-24 23:09:00,
2013-01-24 18:19:00,20.7,-14.2,30.46,WNW,287,3.0,6.0,20,0.00,CLR,,0.00,WeatherDisplay:10.37,2013-01-24 23:19:00,
2013-01-24 18:29:00,20.1,-14.6,30.46,NW,314,3.0,5.0,20,0.00,CLR,,0.00,WeatherDisplay:10.37,2013-01-24 23:29:00,
2013-01-24 18:39:00,18.8,-15.8,30.46,WNW,287,0.0,5.0,20,0.00,CLR,,0.00,WeatherDisplay:10.37,2013-01-24 23:39:00,
2013-01-24 18:49:00,18.9,-15.7,30.46,West,263,0.0,6.0,20,0.00,CLR,,0.00,WeatherDisplay:10.37,2013-01-24 23:49:00,
2013-01-24 18:59:00,18.9,-15.7,30.49,West,278,3.0,6.0,20,0.00,CLR,,0.00,WeatherDisplay:10.37,2013-01-24 23:59:00,
2013-01-24 19:09:00,17.9,-15.5,30.49,NNW,328,5.0,6.0,21,0.00,CLR,,0.00,WeatherDisplay:10.37,2013-01-25 00:09:00,
2013-01-24 19:19:00,18.0,-13.7,30.49,NW,308,0.0,4.0,23,0.00,CLR,,0.00,WeatherDisplay:10.37,2013-01-25 00:19:00,
2013-01-24 19:29:00,18.9,-12.9,30.49,West,263,7.0,8.0,23,0.00,CLR,,0.00,WeatherDisplay:10.37,2013-01-25 00:29:00,
2013-01-24 19:39:00,18.7,-13.1,30.49,West,274,2.0,9.0,23,0.00,CLR,,0.00,WeatherDisplay:10.37,2013-01-25 00:39:00,
2013-01-24 19:49:00,18.3,-13.4,30.49,WNW,288,0.0,3.0,23,0.00,CLR,,0.00,WeatherDisplay:10.37,2013-01-25 00:49:00,
2013-01-24 19:59:00,17.6,-14.0,30.49,WNW,282,0.0,0.0,23,0.00,CLR,,0.00,WeatherDisplay:10.37,2013-01-25 00:59:00,
2013-01-24 20:09:00,16.9,-14.6,30.49,WSW,258,0.0,3.0,23,0.00,CLR,,0.00,WeatherDisplay:10.37,2013-01-25 01:09:00,
2013-01-24 20:19:00,17.1,-14.4,30.49,SW,232,3.0,4.0,23,0.00,CLR,,0.00,WeatherDisplay:10.37,2013-01-25 01:19:00,
2013-01-24 20:29:00,17.4,-14.2,30.49,SW,227,2.0,6.0,23,0.00,CLR,,0.00,WeatherDisplay:10.37,2013-01-25 01:29:00,
2013-01-24 20:39:00,16.7,-14.8,30.46,WNW,284,0.0,4.0,23,0.00,CLR,,0.00,WeatherDisplay:10.37,2013-01-25 01:39:00,
2013-01-24 20:49:00,16.2,-15.2,30.46,WSW,248,0.0,4.0,23,0.00,CLR,,0.00,WeatherDisplay:10.37,2013-01-25 01:49:00,
2013-01-24 20:59:00,16.3,-15.1,30.49,SSW,209,0.0,4.0,23,0.00,CLR,,0.00,WeatherDisplay:10.37,2013-01-25 01:59:00,
2013-01-24 21:09:00,14.2,-16.0,30.49,SW,224,0.0,0.0,24,0.00,CLR,,0.00,WeatherDisplay:10.37,2013-01-25 02:09:00,
2013-01-24 21:19:00,12.7,-17.4,30.49,WSW,247,0.0,0.0,24,0.00,CLR,,0.00,WeatherDisplay:10.37,2013-01-25 02:19:00,
2013-01-24 21:29:00,13.3,-16.8,30.49,SW,220,3.0,6.0,24,0.00,CLR,,0.00,WeatherDisplay:10.37,2013-01-25 02:29:00,
2013-01-24 21:39:00,15.0,-10.3,30.49,SSW,197,3.0,4.0,31,0.00,CLR,,0.00,WeatherDisplay:10.37,2013-01-25 02:39:00,
2013-01-24 21:49:00,15.4,-11.2,30.49,WSW,237,0.0,4.0,29,0.00,CLR,,0.00,WeatherDisplay:10.37,2013-01-25 02:49:00,
2013-01-24 21:59:00,13.1,-13.3,30.49,NW,320,0.0,5.0,29,0.00,CLR,,0.00,WeatherDisplay:10.37,2013-01-25 02:59:00,
2013-01-24 22:09:00,12.9,-13.5,30.46,WNW,297,2.0,6.0,29,0.00,CLR,,0.00,WeatherDisplay:10.37,2013-01-25 03:09:00,
2013-01-24 22:19:00,14.4,-10.8,30.46,SSW,201,1.0,6.0,31,0.00,CLR,,0.00,WeatherDisplay:10.37,2013-01-25 03:19:00,
2013-01-24 22:29:00,13.8,-10.7,30.49,West,279,0.0,0.0,32,0.00,CLR,,0.00,WeatherDisplay:10.37,2013-01-25 03:29:00,
2013-01-24 22:39:00,12.4,-12.0,30.49,NW,312,5.0,6.0,32,0.00,CLR,,0.00,WeatherDisplay:10.37,2013-01-25 03:39:00,
2013-01-24 22:49:00,12.1,-12.2,30.49,NW,310,0.0,6.0,32,0.00,CLR,,0.00,WeatherDisplay:10.37,2013-01-25 03:49:00,
2013-01-24 22:59:00,13.1,-11.3,30.49,NW,311,5.0,6.0,32,0.00,CLR,,0.00,WeatherDisplay:10.37,2013-01-25 03:59:00,
2013-01-24 23:09:00,13.1,-11.3,30.46,NW,317,1.0,6.0,32,0.00,CLR,,0.00,WeatherDisplay:10.37,2013-01-25 04:09:00,
2013-01-24 23:19:00,14.5,-10.7,30.46,SSW,192,7.0,9.0,31,0.00,CLR,,0.00,WeatherDisplay:10.37,2013-01-25 04:19:00,
2013-01-24 23:29:00,14.5,-10.7,30.49,NW,324,3.0,6.0,31,0.00,CLR,,0.00,WeatherDisplay:10.37,2013-01-25 04:29:00,
2013-01-24 23:39:00,13.6,-12.8,30.49,West,274,3.0,6.0,29,0.00,CLR,,0.00,WeatherDisplay:10.37,2013-01-25 04:39:00,
2013-01-24 23:49:00,13.5,-13.0,30.49,NNW,341,0.0,7.0,29,0.00,CLR,,0.00,WeatherDisplay:10.37,2013-01-25 04:49:00,
2013-01-24 23:59:00,14.1,-12.4,30.49,SSE,166,2.0,8.0,29,0.00,CLR,,0.00,WeatherDisplay:10.37,2013-01-25 04:59:00,